Robersonville, NC (27871)

05:34 EST le 24 février 2017 (GMT -0500)
home | | Change Station

Alt. 0 ft 35.69 °N, 77.28 °W | Updated 13 seconds ago

Nuageux
Nuageux
50.9 ° F
Paraît 50.9 ° F
N
0.0
Vent Variable Vent de NNE
Gusts 1.3 mph

Aujourd'hui
Haut(e) -- | Bas -- ° F
--% Risque de précip.
Hier
Haut(e) -- | Bas -- ° F
Precip. -- pouce
Pression 29.94 pouce
Visibilité 0.5 Miles terrestres
Nuages
Point de rosée 49 ° F
Humidité 93%
Précipitations 0.00 pouce
Profondeur de la couche neigeuse Non disponible.
6:45 AM 5:59 PM
Lune descendante, 5% visible
METAR KPGV 241010Z AUTO 00000KT 1/2SM FG VV005 09/09 A2994 RMK AO2
Pression 29.94 pouce
Visibilité 0.5 Miles terrestres
Nuages
Point de rosée 49 ° F
Humidité 93%
Précipitations 0.00 pouce
Profondeur de la couche neigeuse Non disponible.
6:45 AM 5:59 PM
Lune descendante, 5% visible
METAR KPGV 241010Z AUTO 00000KT 1/2SM FG VV005 09/09 A2994 RMK AO2

Get Your Daily Forecast Email!

Thanks for signing up!

Be on the lookout for a verification email in your inbox.

You'll start receiving the daily forecast at 8 AM.

×

10-Day Weather Forecast

Almanac

Astronomie

Feb. 24, 2017 Lever Coucher
Temps réel
Crépuscule civil
Crépuscule nautique
Crépuscule astronomique
Lune
Durée de lumière visible
Longueur du jour
Tomorrow will be .
, % of the Moon is Illuminated

Extrêmes aujourd'hui

State Highs State Lows

Community

WunderPhotos

Upload Photos

1,962,540 Photos téléchargées !

WunderBlog® & News

Nearby

Qualité de l'air

  Qualité de l'air Indice de la qualité de l'air Polluant
Not available.

Épaisseur de neige

Station Depth Altitude

Activité sismique

Ville Distance Mag. Time & Date
Minimum magnitude displayed is 2.5.

Températures des eaux côtières

Lieu Température

Stations

Stations météo à proximité

Emplacement de la station Température Refroidissement éolien Point de rosée Humidité Vent Precip. Alt. Mise à jour Type
                   

Watches & Warnings

There are currently no watches in effect.